sensor_id;sensor_type;location;lat;lon;timestamp;temperature;humidity
68556;HTU21D;55544;51.032;5.866;2022-09-30T00:01:09;10.80;71.91
68556;HTU21D;55544;51.032;5.866;2022-09-30T00:03:34;10.86;71.74
68556;HTU21D;55544;51.032;5.866;2022-09-30T00:06:05;10.95;71.32
68556;HTU21D;55544;51.032;5.866;2022-09-30T00:08:31;11.01;70.52
68556;HTU21D;55544;51.032;5.866;2022-09-30T00:11:12;11.05;69.91
68556;HTU21D;55544;51.032;5.866;2022-09-30T00:13:41;11.08;69.87
68556;HTU21D;55544;51.032;5.866;2022-09-30T00:16:10;11.03;69.93
68556;HTU21D;55544;51.032;5.866;2022-09-30T00:18:36;10.99;69.87
68556;HTU21D;55544;51.032;5.866;2022-09-30T00:21:04;10.94;70.03
68556;HTU21D;55544;51.032;5.866;2022-09-30T00:23:29;10.78;71.07
68556;HTU21D;55544;51.032;5.866;2022-09-30T00:26:01;10.67;71.75
68556;HTU21D;55544;51.032;5.866;2022-09-30T00:28:28;10.59;71.95
68556;HTU21D;55544;51.032;5.866;2022-09-30T00:31:00;10.65;71.58
68556;HTU21D;55544;51.032;5.866;2022-09-30T00:33:26;10.72;71.13
68556;HTU21D;55544;51.032;5.866;2022-09-30T00:35:52;10.79;70.84
68556;HTU21D;55544;51.032;5.866;2022-09-30T00:38:18;10.84;70.40
68556;HTU21D;55544;51.032;5.866;2022-09-30T00:40:44;10.83;69.99
68556;HTU21D;55544;51.032;5.866;2022-09-30T00:43:17;10.79;69.78
68556;HTU21D;55544;51.032;5.866;2022-09-30T00:45:51;10.62;69.99
68556;HTU21D;55544;51.032;5.866;2022-09-30T00:48:32;10.62;69.81
68556;HTU21D;55544;51.032;5.866;2022-09-30T00:51:02;10.64;69.74
68556;HTU21D;55544;51.032;5.866;2022-09-30T00:53:43;10.54;70.20
68556;HTU21D;55544;51.032;5.866;2022-09-30T00:56:17;10.40;70.51
68556;HTU21D;55544;51.032;5.866;2022-09-30T00:58:52;10.22;71.16
68556;HTU21D;55544;51.032;5.866;2022-09-30T01:01:22;10.13;71.49
68556;HTU21D;55544;51.032;5.866;2022-09-30T01:03:53;10.01;72.05
68556;HTU21D;55544;51.032;5.866;2022-09-30T01:06:22;10.10;71.70
68556;HTU21D;55544;51.032;5.866;2022-09-30T01:08:49;10.12;71.72
68556;HTU21D;55544;51.032;5.866;2022-09-30T01:11:16;10.08;71.80
68556;HTU21D;55544;51.032;5.866;2022-09-30T01:13:45;10.10;71.46
68556;HTU21D;55544;51.032;5.866;2022-09-30T01:24:15;9.96;72.07
68556;HTU21D;55544;51.032;5.866;2022-09-30T01:29:27;10.08;71.00
68556;HTU21D;55544;51.032;5.866;2022-09-30T01:35:22;10.12;70.37
68556;HTU21D;55544;51.032;5.866;2022-09-30T01:41:35;10.09;70.46
68556;HTU21D;55544;51.032;5.866;2022-09-30T01:47:23;10.00;70.53
68556;HTU21D;55544;51.032;5.866;2022-09-30T01:50:00;10.05;70.75
68556;HTU21D;55544;51.032;5.866;2022-09-30T01:52:55;10.07;70.57
68556;HTU21D;55544;51.032;5.866;2022-09-30T02:01:16;9.98;70.84
68556;HTU21D;55544;51.032;5.866;2022-09-30T02:03:57;10.00;70.64
68556;HTU21D;55544;51.032;5.866;2022-09-30T02:06:33;10.01;70.52
68556;HTU21D;55544;51.032;5.866;2022-09-30T02:09:11;10.04;70.50
68556;HTU21D;55544;51.032;5.866;2022-09-30T02:11:40;10.04;70.42
68556;HTU21D;55544;51.032;5.866;2022-09-30T02:17:27;9.84;71.59
68556;HTU21D;55544;51.032;5.866;2022-09-30T02:20:09;9.79;72.16
68556;HTU21D;55544;51.032;5.866;2022-09-30T02:22:45;9.78;72.69
68556;HTU21D;55544;51.032;5.866;2022-09-30T02:25:22;9.81;72.23
68556;HTU21D;55544;51.032;5.866;2022-09-30T02:27:59;9.85;72.10
68556;HTU21D;55544;51.032;5.866;2022-09-30T02:30:26;9.90;71.82
68556;HTU21D;55544;51.032;5.866;2022-09-30T02:33:00;9.92;71.70
68556;HTU21D;55544;51.032;5.866;2022-09-30T02:35:40;9.92;71.57
68556;HTU21D;55544;51.032;5.866;2022-09-30T02:38:29;9.92;71.39
68556;HTU21D;55544;51.032;5.866;2022-09-30T02:41:04;9.93;71.52
68556;HTU21D;55544;51.032;5.866;2022-09-30T02:43:32;9.93;71.39
68556;HTU21D;55544;51.032;5.866;2022-09-30T02:48:48;9.81;72.10
68556;HTU21D;55544;51.032;5.866;2022-09-30T02:59:26;9.71;72.50
68556;HTU21D;55544;51.032;5.866;2022-09-30T03:01:52;9.70;72.84
68556;HTU21D;55544;51.032;5.866;2022-09-30T03:04:26;9.70;72.48
68556;HTU21D;55544;51.032;5.866;2022-09-30T03:06:54;9.70;72.04
68556;HTU21D;55544;51.032;5.866;2022-09-30T03:09:24;9.72;72.51
68556;HTU21D;55544;51.032;5.866;2022-09-30T03:11:56;9.74;73.26
68556;HTU21D;55544;51.032;5.866;2022-09-30T03:17:29;9.57;74.84
68556;HTU21D;55544;51.032;5.866;2022-09-30T03:20:44;9.51;75.71
68556;HTU21D;55544;51.032;5.866;2022-09-30T03:28:16;9.49;76.63
68556;HTU21D;55544;51.032;5.866;2022-09-30T03:36:23;9.63;75.11
68556;HTU21D;55544;51.032;5.866;2022-09-30T03:38:57;9.64;74.15
68556;HTU21D;55544;51.032;5.866;2022-09-30T03:41:33;9.61;73.85
68556;HTU21D;55544;51.032;5.866;2022-09-30T03:44:11;9.57;74.27
68556;HTU21D;55544;51.032;5.866;2022-09-30T03:46:47;9.54;74.86
68556;HTU21D;55544;51.032;5.866;2022-09-30T03:49:22;9.59;74.73
68556;HTU21D;55544;51.032;5.866;2022-09-30T03:51:48;9.59;74.42
68556;HTU21D;55544;51.032;5.866;2022-09-30T03:54:14;9.61;74.45
68556;HTU21D;55544;51.032;5.866;2022-09-30T03:56:41;9.65;74.77
68556;HTU21D;55544;51.032;5.866;2022-09-30T03:59:12;9.61;75.21
68556;HTU21D;55544;51.032;5.866;2022-09-30T04:01:41;9.61;74.96
68556;HTU21D;55544;51.032;5.866;2022-09-30T04:04:07;9.60;74.73
68556;HTU21D;55544;51.032;5.866;2022-09-30T04:06:33;9.57;74.54
68556;HTU21D;55544;51.032;5.866;2022-09-30T04:08:59;9.59;74.49
68556;HTU21D;55544;51.032;5.866;2022-09-30T04:11:24;9.61;74.85
68556;HTU21D;55544;51.032;5.866;2022-09-30T04:13:50;9.59;75.07
68556;HTU21D;55544;51.032;5.866;2022-09-30T04:16:16;9.56;74.94
68556;HTU21D;55544;51.032;5.866;2022-09-30T04:18:42;9.55;74.83
68556;HTU21D;55544;51.032;5.866;2022-09-30T04:21:10;9.56;74.62
68556;HTU21D;55544;51.032;5.866;2022-09-30T04:23:38;9.54;74.46
68556;HTU21D;55544;51.032;5.866;2022-09-30T04:26:11;9.50;74.51
68556;HTU21D;55544;51.032;5.866;2022-09-30T04:28:37;9.38;74.77
68556;HTU21D;55544;51.032;5.866;2022-09-30T04:31:05;9.27;75.27
68556;HTU21D;55544;51.032;5.866;2022-09-30T04:33:31;9.21;75.66
68556;HTU21D;55544;51.032;5.866;2022-09-30T04:35:58;9.23;76.08
68556;HTU21D;55544;51.032;5.866;2022-09-30T04:38:25;9.22;76.63
68556;HTU21D;55544;51.032;5.866;2022-09-30T04:40:52;9.21;76.60
68556;HTU21D;55544;51.032;5.866;2022-09-30T04:43:22;9.18;76.98
68556;HTU21D;55544;51.032;5.866;2022-09-30T04:45:51;9.20;76.68
68556;HTU21D;55544;51.032;5.866;2022-09-30T04:48:19;9.26;76.10
68556;HTU21D;55544;51.032;5.866;2022-09-30T04:50:47;9.26;76.28
68556;HTU21D;55544;51.032;5.866;2022-09-30T04:53:14;9.29;76.89
68556;HTU21D;55544;51.032;5.866;2022-09-30T04:55:42;9.33;77.16
68556;HTU21D;55544;51.032;5.866;2022-09-30T04:58:08;9.37;77.48
68556;HTU21D;55544;51.032;5.866;2022-09-30T05:00:34;9.39;77.70
68556;HTU21D;55544;51.032;5.866;2022-09-30T05:02:59;9.40;77.85
68556;HTU21D;55544;51.032;5.866;2022-09-30T05:05:25;9.40;77.91
68556;HTU21D;55544;51.032;5.866;2022-09-30T05:07:51;9.35;77.99
68556;HTU21D;55544;51.032;5.866;2022-09-30T05:10:17;9.24;78.28
68556;HTU21D;55544;51.032;5.866;2022-09-30T05:12:42;9.15;78.66
68556;HTU21D;55544;51.032;5.866;2022-09-30T05:15:10;9.09;78.98
68556;HTU21D;55544;51.032;5.866;2022-09-30T05:17:36;9.09;78.97
68556;HTU21D;55544;51.032;5.866;2022-09-30T05:20:02;9.12;78.43
68556;HTU21D;55544;51.032;5.866;2022-09-30T05:22:29;9.19;78.01
68556;HTU21D;55544;51.032;5.866;2022-09-30T05:24:54;9.23;77.91
68556;HTU21D;55544;51.032;5.866;2022-09-30T05:27:23;9.26;77.76
68556;HTU21D;55544;51.032;5.866;2022-09-30T05:29:49;9.24;77.96
68556;HTU21D;55544;51.032;5.866;2022-09-30T05:32:15;9.18;78.30
68556;HTU21D;55544;51.032;5.866;2022-09-30T05:34:42;9.19;78.50
68556;HTU21D;55544;51.032;5.866;2022-09-30T05:37:08;9.21;78.03
68556;HTU21D;55544;51.032;5.866;2022-09-30T05:39:34;9.22;77.83
68556;HTU21D;55544;51.032;5.866;2022-09-30T05:42:01;9.15;78.24
68556;HTU21D;55544;51.032;5.866;2022-09-30T05:44:26;9.15;78.47
68556;HTU21D;55544;51.032;5.866;2022-09-30T05:46:52;9.20;78.18
68556;HTU21D;55544;51.032;5.866;2022-09-30T05:49:18;9.23;78.14
68556;HTU21D;55544;51.032;5.866;2022-09-30T05:51:43;9.24;78.33
68556;HTU21D;55544;51.032;5.866;2022-09-30T05:54:10;9.20;78.60
68556;HTU21D;55544;51.032;5.866;2022-09-30T05:56:36;9.21;78.28
68556;HTU21D;55544;51.032;5.866;2022-09-30T05:59:06;9.21;78.11
68556;HTU21D;55544;51.032;5.866;2022-09-30T06:01:32;9.24;78.52
68556;HTU21D;55544;51.032;5.866;2022-09-30T06:03:58;9.23;78.74
68556;HTU21D;55544;51.032;5.866;2022-09-30T06:06:25;9.24;78.79
68556;HTU21D;55544;51.032;5.866;2022-09-30T06:08:51;9.27;78.67
68556;HTU21D;55544;51.032;5.866;2022-09-30T06:11:19;9.30;78.21
68556;HTU21D;55544;51.032;5.866;2022-09-30T06:13:47;9.31;78.09
68556;HTU21D;55544;51.032;5.866;2022-09-30T06:16:13;9.37;78.05
68556;HTU21D;55544;51.032;5.866;2022-09-30T06:18:39;9.36;78.52
68556;HTU21D;55544;51.032;5.866;2022-09-30T06:21:07;9.38;78.77
68556;HTU21D;55544;51.032;5.866;2022-09-30T06:23:35;9.44;78.33
68556;HTU21D;55544;51.032;5.866;2022-09-30T06:26:03;9.48;78.27
68556;HTU21D;55544;51.032;5.866;2022-09-30T06:28:30;9.52;78.31
68556;HTU21D;55544;51.032;5.866;2022-09-30T06:30:58;9.57;78.55
68556;HTU21D;55544;51.032;5.866;2022-09-30T06:33:24;9.64;78.74
68556;HTU21D;55544;51.032;5.866;2022-09-30T06:35:49;9.69;78.87
68556;HTU21D;55544;51.032;5.866;2022-09-30T06:38:15;9.77;79.00
68556;HTU21D;55544;51.032;5.866;2022-09-30T06:40:42;9.81;79.18
68556;HTU21D;55544;51.032;5.866;2022-09-30T06:43:09;9.88;79.55
68556;HTU21D;55544;51.032;5.866;2022-09-30T06:45:36;9.91;79.93
68556;HTU21D;55544;51.032;5.866;2022-09-30T06:48:04;9.94;80.43
68556;HTU21D;55544;51.032;5.866;2022-09-30T06:50:31;9.96;80.78
68556;HTU21D;55544;51.032;5.866;2022-09-30T06:53:03;10.00;81.07
68556;HTU21D;55544;51.032;5.866;2022-09-30T06:55:32;10.06;81.42
68556;HTU21D;55544;51.032;5.866;2022-09-30T06:57:58;10.05;81.86
68556;HTU21D;55544;51.032;5.866;2022-09-30T07:00:25;10.05;82.13
68556;HTU21D;55544;51.032;5.866;2022-09-30T07:02:54;10.09;82.52
68556;HTU21D;55544;51.032;5.866;2022-09-30T07:05:21;10.16;82.45
68556;HTU21D;55544;51.032;5.866;2022-09-30T07:07:47;10.27;82.34
68556;HTU21D;55544;51.032;5.866;2022-09-30T07:10:13;10.38;82.42
68556;HTU21D;55544;51.032;5.866;2022-09-30T07:12:39;10.49;82.72
68556;HTU21D;55544;51.032;5.866;2022-09-30T07:15:07;10.58;82.67
68556;HTU21D;55544;51.032;5.866;2022-09-30T07:17:32;10.70;82.78
68556;HTU21D;55544;51.032;5.866;2022-09-30T07:19:58;10.82;82.92
68556;HTU21D;55544;51.032;5.866;2022-09-30T07:22:24;10.93;82.86
68556;HTU21D;55544;51.032;5.866;2022-09-30T07:25:03;11.05;82.65
68556;HTU21D;55544;51.032;5.866;2022-09-30T07:27:31;11.15;82.26
68556;HTU21D;55544;51.032;5.866;2022-09-30T07:29:58;11.28;82.05
68556;HTU21D;55544;51.032;5.866;2022-09-30T07:32:24;11.37;82.29
68556;HTU21D;55544;51.032;5.866;2022-09-30T07:34:50;11.46;82.13
68556;HTU21D;55544;51.032;5.866;2022-09-30T07:37:17;11.56;81.96
68556;HTU21D;55544;51.032;5.866;2022-09-30T07:39:46;11.69;81.66
68556;HTU21D;55544;51.032;5.866;2022-09-30T07:42:14;11.79;81.58
68556;HTU21D;55544;51.032;5.866;2022-09-30T07:44:40;11.92;81.49
68556;HTU21D;55544;51.032;5.866;2022-09-30T07:47:09;12.01;81.39
68556;HTU21D;55544;51.032;5.866;2022-09-30T07:49:35;12.08;81.45
68556;HTU21D;55544;51.032;5.866;2022-09-30T07:52:02;12.29;81.00
68556;HTU21D;55544;51.032;5.866;2022-09-30T07:54:30;12.44;80.40
68556;HTU21D;55544;51.032;5.866;2022-09-30T07:56:57;12.58;79.79
68556;HTU21D;55544;51.032;5.866;2022-09-30T07:59:24;12.67;80.09
68556;HTU21D;55544;51.032;5.866;2022-09-30T08:01:51;12.77;79.66
68556;HTU21D;55544;51.032;5.866;2022-09-30T08:04:19;12.89;79.20
68556;HTU21D;55544;51.032;5.866;2022-09-30T08:06:48;13.00;78.72
68556;HTU21D;55544;51.032;5.866;2022-09-30T08:09:17;13.03;78.18
68556;HTU21D;55544;51.032;5.866;2022-09-30T08:11:44;13.08;78.30
68556;HTU21D;55544;51.032;5.866;2022-09-30T08:14:15;13.10;78.70
68556;HTU21D;55544;51.032;5.866;2022-09-30T08:16:41;13.22;78.47
68556;HTU21D;55544;51.032;5.866;2022-09-30T08:19:12;13.30;78.30
68556;HTU21D;55544;51.032;5.866;2022-09-30T08:21:37;13.40;78.57
68556;HTU21D;55544;51.032;5.866;2022-09-30T08:24:03;13.51;78.03
68556;HTU21D;55544;51.032;5.866;2022-09-30T08:26:29;13.59;77.89
68556;HTU21D;55544;51.032;5.866;2022-09-30T08:28:55;13.67;78.26
68556;HTU21D;55544;51.032;5.866;2022-09-30T08:31:22;13.79;77.67
68556;HTU21D;55544;51.032;5.866;2022-09-30T08:33:49;13.90;77.47
68556;HTU21D;55544;51.032;5.866;2022-09-30T08:36:18;13.99;77.27
68556;HTU21D;55544;51.032;5.866;2022-09-30T08:38:44;14.06;76.49
68556;HTU21D;55544;51.032;5.866;2022-09-30T08:41:39;14.10;76.63
68556;HTU21D;55544;51.032;5.866;2022-09-30T08:50:04;14.28;75.54
68556;HTU21D;55544;51.032;5.866;2022-09-30T08:52:39;14.43;75.25
68556;HTU21D;55544;51.032;5.866;2022-09-30T08:55:06;14.51;74.90
68556;HTU21D;55544;51.032;5.866;2022-09-30T08:57:40;14.63;73.90
68556;HTU21D;55544;51.032;5.866;2022-09-30T09:00:11;14.66;73.77
68556;HTU21D;55544;51.032;5.866;2022-09-30T09:02:57;14.69;74.53
68556;HTU21D;55544;51.032;5.866;2022-09-30T09:08:20;14.84;71.59
68556;HTU21D;55544;51.032;5.866;2022-09-30T09:11:15;15.00;73.51
68556;HTU21D;55544;51.032;5.866;2022-09-30T09:13:52;15.14;72.58
68556;HTU21D;55544;51.032;5.866;2022-09-30T09:16:38;15.28;72.17
68556;HTU21D;55544;51.032;5.866;2022-09-30T09:19:12;15.36;71.35
68556;HTU21D;55544;51.032;5.866;2022-09-30T09:21:54;15.46;71.79
68556;HTU21D;55544;51.032;5.866;2022-09-30T09:24:47;15.55;72.16
68556;HTU21D;55544;51.032;5.866;2022-09-30T09:30:09;15.76;70.21
68556;HTU21D;55544;51.032;5.866;2022-09-30T09:32:35;15.73;70.14
68556;HTU21D;55544;51.032;5.866;2022-09-30T09:35:13;15.76;70.59
68556;HTU21D;55544;51.032;5.866;2022-09-30T09:41:13;15.87;69.97
68556;HTU21D;55544;51.032;5.866;2022-09-30T09:49:31;16.04;69.18
68556;HTU21D;55544;51.032;5.866;2022-09-30T09:54:48;16.24;69.87
68556;HTU21D;55544;51.032;5.866;2022-09-30T09:57:19;16.33;69.37
68556;HTU21D;55544;51.032;5.866;2022-09-30T10:00:00;16.40;69.57
68556;HTU21D;55544;51.032;5.866;2022-09-30T10:03:16;16.56;68.40
68556;HTU21D;55544;51.032;5.866;2022-09-30T10:08:29;16.76;66.69
68556;HTU21D;55544;51.032;5.866;2022-09-30T10:11:02;16.89;67.93
68556;HTU21D;55544;51.032;5.866;2022-09-30T10:16:03;17.19;67.20
68556;HTU21D;55544;51.032;5.866;2022-09-30T10:18:35;17.38;66.58
68556;HTU21D;55544;51.032;5.866;2022-09-30T10:23:36;17.44;66.11
68556;HTU21D;55544;51.032;5.866;2022-09-30T10:26:18;17.56;65.47
68556;HTU21D;55544;51.032;5.866;2022-09-30T10:28:48;17.65;65.05
68556;HTU21D;55544;51.032;5.866;2022-09-30T10:31:22;17.66;65.24
68556;HTU21D;55544;51.032;5.866;2022-09-30T10:36:45;17.85;64.71
68556;HTU21D;55544;51.032;5.866;2022-09-30T10:39:18;17.94;64.94
68556;HTU21D;55544;51.032;5.866;2022-09-30T10:41:45;18.04;64.01
68556;HTU21D;55544;51.032;5.866;2022-09-30T10:44:19;18.10;63.47
68556;HTU21D;55544;51.032;5.866;2022-09-30T10:46:49;18.03;62.87
68556;HTU21D;55544;51.032;5.866;2022-09-30T10:49:36;18.06;62.95
68556;HTU21D;55544;51.032;5.866;2022-09-30T10:52:05;18.18;62.58
68556;HTU21D;55544;51.032;5.866;2022-09-30T10:57:23;18.09;62.60
68556;HTU21D;55544;51.032;5.866;2022-09-30T10:59:56;18.27;62.73
68556;HTU21D;55544;51.032;5.866;2022-09-30T11:02:33;18.26;61.80
68556;HTU21D;55544;51.032;5.866;2022-09-30T11:05:21;18.28;62.14
68556;HTU21D;55544;51.032;5.866;2022-09-30T11:08:16;18.19;61.87
68556;HTU21D;55544;51.032;5.866;2022-09-30T11:13:39;17.72;61.77
68556;HTU21D;55544;51.032;5.866;2022-09-30T11:23:56;17.33;64.01
68556;HTU21D;55544;51.032;5.866;2022-09-30T11:26:49;17.34;64.13
68556;HTU21D;55544;51.032;5.866;2022-09-30T11:38:28;17.81;61.02
68556;HTU21D;55544;51.032;5.866;2022-09-30T11:41:17;18.00;62.15
68556;HTU21D;55544;51.032;5.866;2022-09-30T11:55:17;19.07;57.20
68556;HTU21D;55544;51.032;5.866;2022-09-30T12:00:20;19.18;55.80
68556;HTU21D;55544;51.032;5.866;2022-09-30T12:02:47;19.21;55.93
68556;HTU21D;55544;51.032;5.866;2022-09-30T12:10:45;19.13;55.27
68556;HTU21D;55544;51.032;5.866;2022-09-30T12:13:25;19.14;55.45
68556;HTU21D;55544;51.032;5.866;2022-09-30T12:15:55;19.24;55.78
68556;HTU21D;55544;51.032;5.866;2022-09-30T12:18:31;19.52;54.42
68556;HTU21D;55544;51.032;5.866;2022-09-30T12:21:21;19.65;53.41
68556;HTU21D;55544;51.032;5.866;2022-09-30T12:23:57;19.59;52.78
68556;HTU21D;55544;51.032;5.866;2022-09-30T12:26:24;19.38;53.56
68556;HTU21D;55544;51.032;5.866;2022-09-30T12:29:14;19.24;54.01
68556;HTU21D;55544;51.032;5.866;2022-09-30T12:43:16;19.97;53.21
68556;HTU21D;55544;51.032;5.866;2022-09-30T12:49:01;20.22;51.69
68556;HTU21D;55544;51.032;5.866;2022-09-30T12:51:32;20.40;51.49
68556;HTU21D;55544;51.032;5.866;2022-09-30T12:54:12;20.56;51.46
68556;HTU21D;55544;51.032;5.866;2022-09-30T12:56:42;20.69;50.55
68556;HTU21D;55544;51.032;5.866;2022-09-30T12:59:10;20.63;49.48
68556;HTU21D;55544;51.032;5.866;2022-09-30T13:01:39;20.60;50.02
68556;HTU21D;55544;51.032;5.866;2022-09-30T13:12:13;20.73;49.92
68556;HTU21D;55544;51.032;5.866;2022-09-30T13:14:36;20.40;49.93
68556;HTU21D;55544;51.032;5.866;2022-09-30T13:19:40;20.45;50.68
68556;HTU21D;55544;51.032;5.866;2022-09-30T13:32:47;20.34;50.71
68556;HTU21D;55544;51.032;5.866;2022-09-30T13:43:42;20.49;49.93
68556;HTU21D;55544;51.032;5.866;2022-09-30T13:46:21;20.37;49.78
68556;HTU21D;55544;51.032;5.866;2022-09-30T13:49:00;20.32;50.52
68556;HTU21D;55544;51.032;5.866;2022-09-30T13:51:31;20.44;51.21
68556;HTU21D;55544;51.032;5.866;2022-09-30T13:54:04;20.46;50.60
68556;HTU21D;55544;51.032;5.866;2022-09-30T13:56:35;20.63;48.77
68556;HTU21D;55544;51.032;5.866;2022-09-30T14:02:21;20.31;50.54
68556;HTU21D;55544;51.032;5.866;2022-09-30T14:22:15;20.74;48.57
68556;HTU21D;55544;51.032;5.866;2022-09-30T14:24:41;20.76;48.92
68556;HTU21D;55544;51.032;5.866;2022-09-30T14:32:54;21.19;46.92
68556;HTU21D;55544;51.032;5.866;2022-09-30T14:35:28;21.19;47.64
68556;HTU21D;55544;51.032;5.866;2022-09-30T14:37:58;21.11;46.33
68556;HTU21D;55544;51.032;5.866;2022-09-30T14:40:31;21.00;46.98
68556;HTU21D;55544;51.032;5.866;2022-09-30T14:43:01;20.79;47.35
68556;HTU21D;55544;51.032;5.866;2022-09-30T14:45:39;20.72;47.54
68556;HTU21D;55544;51.032;5.866;2022-09-30T14:48:15;20.44;48.38
68556;HTU21D;55544;51.032;5.866;2022-09-30T14:50:57;20.45;48.57
68556;HTU21D;55544;51.032;5.866;2022-09-30T14:53:37;20.59;48.90
68556;HTU21D;55544;51.032;5.866;2022-09-30T14:56:20;20.69;48.04
68556;HTU21D;55544;51.032;5.866;2022-09-30T14:58:48;20.79;48.60
68556;HTU21D;55544;51.032;5.866;2022-09-30T15:01:18;20.91;48.87
68556;HTU21D;55544;51.032;5.866;2022-09-30T15:03:52;21.01;48.32
68556;HTU21D;55544;51.032;5.866;2022-09-30T15:06:32;21.02;47.85
68556;HTU21D;55544;51.032;5.866;2022-09-30T15:09:05;20.90;47.76
68556;HTU21D;55544;51.032;5.866;2022-09-30T15:11:32;20.81;47.65
68556;HTU21D;55544;51.032;5.866;2022-09-30T15:14:06;20.72;48.12
68556;HTU21D;55544;51.032;5.866;2022-09-30T15:16:33;20.63;48.79
68556;HTU21D;55544;51.032;5.866;2022-09-30T15:18:59;20.57;48.86
68556;HTU21D;55544;51.032;5.866;2022-09-30T15:21:29;20.60;49.00
68556;HTU21D;55544;51.032;5.866;2022-09-30T15:23:58;20.59;49.27
68556;HTU21D;55544;51.032;5.866;2022-09-30T15:26:26;20.56;49.54
68556;HTU21D;55544;51.032;5.866;2022-09-30T15:28:52;20.53;50.05
68556;HTU21D;55544;51.032;5.866;2022-09-30T15:31:26;20.51;50.62
68556;HTU21D;55544;51.032;5.866;2022-09-30T15:34:10;20.50;49.27
68556;HTU21D;55544;51.032;5.866;2022-09-30T15:36:38;20.35;50.16
68556;HTU21D;55544;51.032;5.866;2022-09-30T15:39:11;20.32;51.10
68556;HTU21D;55544;51.032;5.866;2022-09-30T15:41:42;20.46;50.56
68556;HTU21D;55544;51.032;5.866;2022-09-30T15:44:16;20.60;50.08
68556;HTU21D;55544;51.032;5.866;2022-09-30T15:47:07;20.71;50.02
68556;HTU21D;55544;51.032;5.866;2022-09-30T15:54:54;20.80;48.89
68556;HTU21D;55544;51.032;5.866;2022-09-30T15:57:44;20.83;48.93
68556;HTU21D;55544;51.032;5.866;2022-09-30T16:00:31;20.83;48.53
68556;HTU21D;55544;51.032;5.866;2022-09-30T16:03:26;20.86;48.46
68556;HTU21D;55544;51.032;5.866;2022-09-30T16:06:07;20.84;48.00
68556;HTU21D;55544;51.032;5.866;2022-09-30T16:08:58;20.78;48.23
68556;HTU21D;55544;51.032;5.866;2022-09-30T16:11:35;20.76;48.46
68556;HTU21D;55544;51.032;5.866;2022-09-30T16:14:04;20.69;48.47
68556;HTU21D;55544;51.032;5.866;2022-09-30T16:16:34;20.62;48.70
68556;HTU21D;55544;51.032;5.866;2022-09-30T16:19:04;20.59;48.75
68556;HTU21D;55544;51.032;5.866;2022-09-30T16:21:43;20.60;49.04
68556;HTU21D;55544;51.032;5.866;2022-09-30T16:26:59;20.73;49.62
68556;HTU21D;55544;51.032;5.866;2022-09-30T16:29:26;20.83;49.59
68556;HTU21D;55544;51.032;5.866;2022-09-30T16:31:55;20.89;49.24
68556;HTU21D;55544;51.032;5.866;2022-09-30T16:34:26;20.77;48.63
68556;HTU21D;55544;51.032;5.866;2022-09-30T16:36:58;20.56;49.64
68556;HTU21D;55544;51.032;5.866;2022-09-30T16:39:28;20.27;49.45
68556;HTU21D;55544;51.032;5.866;2022-09-30T16:41:53;19.99;50.56
68556;HTU21D;55544;51.032;5.866;2022-09-30T16:44:19;19.77;51.46
68556;HTU21D;55544;51.032;5.866;2022-09-30T16:46:48;19.62;51.88
68556;HTU21D;55544;51.032;5.866;2022-09-30T16:49:18;19.46;52.26
68556;HTU21D;55544;51.032;5.866;2022-09-30T16:51:44;19.35;52.81
68556;HTU21D;55544;51.032;5.866;2022-09-30T16:54:11;19.24;53.12
68556;HTU21D;55544;51.032;5.866;2022-09-30T16:56:37;19.14;53.52
68556;HTU21D;55544;51.032;5.866;2022-09-30T16:59:12;19.05;53.98
68556;HTU21D;55544;51.032;5.866;2022-09-30T17:01:38;18.98;54.21
68556;HTU21D;55544;51.032;5.866;2022-09-30T17:04:05;18.96;54.46
68556;HTU21D;55544;51.032;5.866;2022-09-30T17:06:32;18.91;54.72
68556;HTU21D;55544;51.032;5.866;2022-09-30T17:08:58;18.83;54.75
68556;HTU21D;55544;51.032;5.866;2022-09-30T17:11:31;18.74;55.24
68556;HTU21D;55544;51.032;5.866;2022-09-30T17:13:59;18.68;55.33
68556;HTU21D;55544;51.032;5.866;2022-09-30T17:16:25;18.59;55.38
68556;HTU21D;55544;51.032;5.866;2022-09-30T17:18:51;18.54;55.12
68556;HTU21D;55544;51.032;5.866;2022-09-30T17:21:19;18.37;55.16
68556;HTU21D;55544;51.032;5.866;2022-09-30T17:23:45;18.26;55.32
68556;HTU21D;55544;51.032;5.866;2022-09-30T17:26:12;18.23;55.54
68556;HTU21D;55544;51.032;5.866;2022-09-30T17:28:38;18.19;55.57
68556;HTU21D;55544;51.032;5.866;2022-09-30T17:31:03;18.11;55.91
68556;HTU21D;55544;51.032;5.866;2022-09-30T17:33:35;18.05;56.14
68556;HTU21D;55544;51.032;5.866;2022-09-30T17:36:07;17.98;56.30
68556;HTU21D;55544;51.032;5.866;2022-09-30T17:38:34;17.97;56.25
68556;HTU21D;55544;51.032;5.866;2022-09-30T17:41:01;17.93;56.23
68556;HTU21D;55544;51.032;5.866;2022-09-30T17:43:45;17.85;56.26
68556;HTU21D;55544;51.032;5.866;2022-09-30T17:46:12;17.79;56.48
68556;HTU21D;55544;51.032;5.866;2022-09-30T17:48:39;17.76;56.52
68556;HTU21D;55544;51.032;5.866;2022-09-30T17:51:05;17.74;56.55
68556;HTU21D;55544;51.032;5.866;2022-09-30T17:53:32;17.65;56.77
68556;HTU21D;55544;51.032;5.866;2022-09-30T17:56:06;17.58;57.03
68556;HTU21D;55544;51.032;5.866;2022-09-30T17:58:38;17.52;57.26
68556;HTU21D;55544;51.032;5.866;2022-09-30T18:01:08;17.51;57.60
68556;HTU21D;55544;51.032;5.866;2022-09-30T18:03:35;17.50;57.69
68556;HTU21D;55544;51.032;5.866;2022-09-30T18:06:01;17.51;57.67
68556;HTU21D;55544;51.032;5.866;2022-09-30T18:08:27;17.51;57.90
68556;HTU21D;55544;51.032;5.866;2022-09-30T18:10:56;17.51;57.91
68556;HTU21D;55544;51.032;5.866;2022-09-30T18:13:26;17.48;57.88
68556;HTU21D;55544;51.032;5.866;2022-09-30T18:15:54;17.48;57.97
68556;HTU21D;55544;51.032;5.866;2022-09-30T18:18:20;17.47;58.15
68556;HTU21D;55544;51.032;5.866;2022-09-30T18:20:48;17.49;57.95
68556;HTU21D;55544;51.032;5.866;2022-09-30T18:23:16;17.48;58.02
68556;HTU21D;55544;51.032;5.866;2022-09-30T18:25:47;17.41;58.16
68556;HTU21D;55544;51.032;5.866;2022-09-30T18:28:15;17.43;58.00
68556;HTU21D;55544;51.032;5.866;2022-09-30T18:30:41;17.37;58.05
68556;HTU21D;55544;51.032;5.866;2022-09-30T18:33:07;17.33;58.16
68556;HTU21D;55544;51.032;5.866;2022-09-30T18:35:37;17.20;58.40
68556;HTU21D;55544;51.032;5.866;2022-09-30T18:38:05;17.19;58.28
68556;HTU21D;55544;51.032;5.866;2022-09-30T18:40:31;17.16;58.38
68556;HTU21D;55544;51.032;5.866;2022-09-30T18:42:59;17.10;58.16
68556;HTU21D;55544;51.032;5.866;2022-09-30T18:45:32;16.82;58.65
68556;HTU21D;55544;51.032;5.866;2022-09-30T18:48:01;16.62;59.64
68556;HTU21D;55544;51.032;5.866;2022-09-30T18:50:29;16.51;59.73
68556;HTU21D;55544;51.032;5.866;2022-09-30T18:52:55;16.51;59.57
68556;HTU21D;55544;51.032;5.866;2022-09-30T18:55:23;16.50;59.58
68556;HTU21D;55544;51.032;5.866;2022-09-30T18:57:53;16.56;59.20
68556;HTU21D;55544;51.032;5.866;2022-09-30T19:00:18;16.47;59.17
68556;HTU21D;55544;51.032;5.866;2022-09-30T19:02:45;16.39;59.58
68556;HTU21D;55544;51.032;5.866;2022-09-30T19:05:13;16.13;60.22
68556;HTU21D;55544;51.032;5.866;2022-09-30T19:07:39;16.24;59.90
68556;HTU21D;55544;51.032;5.866;2022-09-30T19:10:09;16.17;60.13
68556;HTU21D;55544;51.032;5.866;2022-09-30T19:12:39;16.19;60.17